sensor_id;sensor_type;location;lat;lon;timestamp;temperature;humidity
32534;DHT22;18973;48.580;8.912;2022-07-18T00:01:34;19.20;60.90
32534;DHT22;18973;48.580;8.912;2022-07-18T00:04:01;18.90;61.50
32534;DHT22;18973;48.580;8.912;2022-07-18T00:06:26;18.70;61.50
32534;DHT22;18973;48.580;8.912;2022-07-18T00:08:52;18.70;61.60
32534;DHT22;18973;48.580;8.912;2022-07-18T00:11:18;18.80;60.80
32534;DHT22;18973;48.580;8.912;2022-07-18T00:13:44;18.70;61.70
32534;DHT22;18973;48.580;8.912;2022-07-18T00:16:10;18.80;62.00
32534;DHT22;18973;48.580;8.912;2022-07-18T00:18:37;18.60;62.40
32534;DHT22;18973;48.580;8.912;2022-07-18T00:21:03;18.60;62.60
32534;DHT22;18973;48.580;8.912;2022-07-18T00:23:29;18.50;63.10
32534;DHT22;18973;48.580;8.912;2022-07-18T00:25:55;18.50;62.30
32534;DHT22;18973;48.580;8.912;2022-07-18T00:28:21;18.50;62.30
32534;DHT22;18973;48.580;8.912;2022-07-18T00:30:46;18.30;62.40
32534;DHT22;18973;48.580;8.912;2022-07-18T00:33:12;18.30;62.90
32534;DHT22;18973;48.580;8.912;2022-07-18T00:35:38;18.50;62.50
32534;DHT22;18973;48.580;8.912;2022-07-18T00:38:04;18.50;63.00
32534;DHT22;18973;48.580;8.912;2022-07-18T00:40:32;18.60;63.10
32534;DHT22;18973;48.580;8.912;2022-07-18T00:42:58;18.60;63.60
32534;DHT22;18973;48.580;8.912;2022-07-18T00:45:24;18.50;63.80
32534;DHT22;18973;48.580;8.912;2022-07-18T00:47:50;18.40;64.20
32534;DHT22;18973;48.580;8.912;2022-07-18T00:50:21;18.30;64.40
32534;DHT22;18973;48.580;8.912;2022-07-18T00:52:47;18.20;64.70
32534;DHT22;18973;48.580;8.912;2022-07-18T00:55:13;18.20;64.70
32534;DHT22;18973;48.580;8.912;2022-07-18T00:57:40;18.10;65.20
32534;DHT22;18973;48.580;8.912;2022-07-18T01:00:11;18.20;64.90
32534;DHT22;18973;48.580;8.912;2022-07-18T01:02:56;18.20;65.40
32534;DHT22;18973;48.580;8.912;2022-07-18T01:05:22;18.00;64.80
32534;DHT22;18973;48.580;8.912;2022-07-18T01:07:47;18.00;64.60
32534;DHT22;18973;48.580;8.912;2022-07-18T01:10:13;17.90;65.50
32534;DHT22;18973;48.580;8.912;2022-07-18T01:12:39;17.70;66.10
32534;DHT22;18973;48.580;8.912;2022-07-18T01:15:05;17.60;66.60
32534;DHT22;18973;48.580;8.912;2022-07-18T01:17:31;17.50;66.00
32534;DHT22;18973;48.580;8.912;2022-07-18T01:19:57;17.50;66.80
32534;DHT22;18973;48.580;8.912;2022-07-18T01:22:23;17.50;66.70
32534;DHT22;18973;48.580;8.912;2022-07-18T01:24:49;17.40;66.10
32534;DHT22;18973;48.580;8.912;2022-07-18T01:27:20;17.40;66.00
32534;DHT22;18973;48.580;8.912;2022-07-18T01:29:48;17.40;66.50
32534;DHT22;18973;48.580;8.912;2022-07-18T01:32:14;17.60;66.00
32534;DHT22;18973;48.580;8.912;2022-07-18T01:34:40;17.70;66.00
32534;DHT22;18973;48.580;8.912;2022-07-18T01:37:07;17.70;66.30
32534;DHT22;18973;48.580;8.912;2022-07-18T01:39:33;17.70;66.20
32534;DHT22;18973;48.580;8.912;2022-07-18T01:42:01;17.50;66.60
32534;DHT22;18973;48.580;8.912;2022-07-18T01:44:28;17.50;67.10
32534;DHT22;18973;48.580;8.912;2022-07-18T01:46:54;17.40;66.80
32534;DHT22;18973;48.580;8.912;2022-07-18T01:49:21;17.20;67.10
32534;DHT22;18973;48.580;8.912;2022-07-18T01:51:48;17.10;67.40
32534;DHT22;18973;48.580;8.912;2022-07-18T01:54:14;17.10;67.90
32534;DHT22;18973;48.580;8.912;2022-07-18T01:56:40;17.10;68.30
32534;DHT22;18973;48.580;8.912;2022-07-18T01:59:06;17.10;68.60
32534;DHT22;18973;48.580;8.912;2022-07-18T02:01:32;17.10;67.80
32534;DHT22;18973;48.580;8.912;2022-07-18T02:03:57;17.00;68.60
32534;DHT22;18973;48.580;8.912;2022-07-18T02:06:23;16.90;68.50
32534;DHT22;18973;48.580;8.912;2022-07-18T02:08:49;17.10;68.60
32534;DHT22;18973;48.580;8.912;2022-07-18T02:11:14;16.80;68.50
32534;DHT22;18973;48.580;8.912;2022-07-18T02:13:40;16.80;68.80
32534;DHT22;18973;48.580;8.912;2022-07-18T02:16:06;16.80;69.20
32534;DHT22;18973;48.580;8.912;2022-07-18T02:18:34;16.80;69.30
32534;DHT22;18973;48.580;8.912;2022-07-18T02:21:00;16.80;69.60
32534;DHT22;18973;48.580;8.912;2022-07-18T02:23:26;16.90;69.20
32534;DHT22;18973;48.580;8.912;2022-07-18T02:25:53;16.90;69.30
32534;DHT22;18973;48.580;8.912;2022-07-18T02:28:19;16.80;69.00
32534;DHT22;18973;48.580;8.912;2022-07-18T02:30:46;16.80;69.20
32534;DHT22;18973;48.580;8.912;2022-07-18T02:33:14;16.70;69.40
32534;DHT22;18973;48.580;8.912;2022-07-18T02:35:40;16.50;70.00
32534;DHT22;18973;48.580;8.912;2022-07-18T02:38:06;16.40;70.10
32534;DHT22;18973;48.580;8.912;2022-07-18T02:40:32;16.40;70.80
32534;DHT22;18973;48.580;8.912;2022-07-18T02:42:58;16.30;71.50
32534;DHT22;18973;48.580;8.912;2022-07-18T02:45:24;16.20;72.50
32534;DHT22;18973;48.580;8.912;2022-07-18T02:47:50;16.10;72.80
32534;DHT22;18973;48.580;8.912;2022-07-18T02:50:16;16.20;72.70
32534;DHT22;18973;48.580;8.912;2022-07-18T02:52:42;16.10;73.00
32534;DHT22;18973;48.580;8.912;2022-07-18T02:55:10;16.00;74.10
32534;DHT22;18973;48.580;8.912;2022-07-18T02:57:36;16.00;72.60
32534;DHT22;18973;48.580;8.912;2022-07-18T03:00:08;16.00;73.40
32534;DHT22;18973;48.580;8.912;2022-07-18T03:02:34;16.00;74.30
32534;DHT22;18973;48.580;8.912;2022-07-18T03:05:00;16.00;74.50
32534;DHT22;18973;48.580;8.912;2022-07-18T03:07:26;16.20;73.70
32534;DHT22;18973;48.580;8.912;2022-07-18T03:09:52;16.30;72.80
32534;DHT22;18973;48.580;8.912;2022-07-18T03:12:18;16.30;73.00
32534;DHT22;18973;48.580;8.912;2022-07-18T03:14:43;16.10;73.90
32534;DHT22;18973;48.580;8.912;2022-07-18T03:17:09;16.10;73.80
32534;DHT22;18973;48.580;8.912;2022-07-18T03:19:35;16.10;74.40
32534;DHT22;18973;48.580;8.912;2022-07-18T03:22:02;16.00;74.80
32534;DHT22;18973;48.580;8.912;2022-07-18T03:24:28;16.10;74.90
32534;DHT22;18973;48.580;8.912;2022-07-18T03:26:54;16.10;74.70
32534;DHT22;18973;48.580;8.912;2022-07-18T03:29:19;16.00;75.30
32534;DHT22;18973;48.580;8.912;2022-07-18T03:31:45;16.00;75.10
32534;DHT22;18973;48.580;8.912;2022-07-18T03:34:11;16.00;75.20
32534;DHT22;18973;48.580;8.912;2022-07-18T03:36:38;15.80;76.20
32534;DHT22;18973;48.580;8.912;2022-07-18T03:39:05;15.70;76.40
32534;DHT22;18973;48.580;8.912;2022-07-18T03:41:31;15.80;76.60
32534;DHT22;18973;48.580;8.912;2022-07-18T03:43:56;15.70;76.60
32534;DHT22;18973;48.580;8.912;2022-07-18T03:46:22;15.70;76.80
32534;DHT22;18973;48.580;8.912;2022-07-18T03:48:48;15.80;76.80
32534;DHT22;18973;48.580;8.912;2022-07-18T03:51:14;15.90;76.10
32534;DHT22;18973;48.580;8.912;2022-07-18T03:53:39;15.90;76.80
32534;DHT22;18973;48.580;8.912;2022-07-18T03:56:05;15.70;76.60
32534;DHT22;18973;48.580;8.912;2022-07-18T03:58:31;15.60;77.50
32534;DHT22;18973;48.580;8.912;2022-07-18T04:00:57;15.60;77.40
32534;DHT22;18973;48.580;8.912;2022-07-18T04:03:23;15.70;77.50
32534;DHT22;18973;48.580;8.912;2022-07-18T04:05:49;15.80;77.70
32534;DHT22;18973;48.580;8.912;2022-07-18T04:08:15;15.80;77.20
32534;DHT22;18973;48.580;8.912;2022-07-18T04:10:41;15.90;77.40
32534;DHT22;18973;48.580;8.912;2022-07-18T04:13:08;15.90;77.70
32534;DHT22;18973;48.580;8.912;2022-07-18T04:15:34;15.90;77.60
32534;DHT22;18973;48.580;8.912;2022-07-18T04:18:00;16.10;75.30
32534;DHT22;18973;48.580;8.912;2022-07-18T04:20:26;16.10;75.00
32534;DHT22;18973;48.580;8.912;2022-07-18T04:22:56;16.00;75.90
32534;DHT22;18973;48.580;8.912;2022-07-18T04:25:24;16.00;76.50
32534;DHT22;18973;48.580;8.912;2022-07-18T04:27:51;15.90;76.20
32534;DHT22;18973;48.580;8.912;2022-07-18T04:30:19;15.90;76.00
32534;DHT22;18973;48.580;8.912;2022-07-18T04:32:45;15.90;76.50
32534;DHT22;18973;48.580;8.912;2022-07-18T04:35:12;15.90;76.70
32534;DHT22;18973;48.580;8.912;2022-07-18T04:37:38;15.80;76.40
32534;DHT22;18973;48.580;8.912;2022-07-18T04:40:06;15.80;77.10
32534;DHT22;18973;48.580;8.912;2022-07-18T04:42:32;15.70;77.80
32534;DHT22;18973;48.580;8.912;2022-07-18T04:44:58;15.70;78.50
32534;DHT22;18973;48.580;8.912;2022-07-18T04:47:25;15.70;78.50
32534;DHT22;18973;48.580;8.912;2022-07-18T04:49:50;15.70;78.80
32534;DHT22;18973;48.580;8.912;2022-07-18T04:52:16;15.80;78.20
32534;DHT22;18973;48.580;8.912;2022-07-18T04:54:42;15.70;79.90
32534;DHT22;18973;48.580;8.912;2022-07-18T04:57:07;15.80;79.30
32534;DHT22;18973;48.580;8.912;2022-07-18T04:59:36;15.60;79.50
32534;DHT22;18973;48.580;8.912;2022-07-18T05:02:02;15.60;80.50
32534;DHT22;18973;48.580;8.912;2022-07-18T05:04:28;15.60;82.70
32534;DHT22;18973;48.580;8.912;2022-07-18T05:06:54;15.50;83.10
32534;DHT22;18973;48.580;8.912;2022-07-18T05:09:19;15.70;81.10
32534;DHT22;18973;48.580;8.912;2022-07-18T05:11:45;15.80;82.60
32534;DHT22;18973;48.580;8.912;2022-07-18T05:14:11;15.90;81.30
32534;DHT22;18973;48.580;8.912;2022-07-18T05:16:37;16.00;80.50
32534;DHT22;18973;48.580;8.912;2022-07-18T05:19:02;16.20;80.00
32534;DHT22;18973;48.580;8.912;2022-07-18T05:21:28;16.30;80.20
32534;DHT22;18973;48.580;8.912;2022-07-18T05:23:54;16.30;80.10
32534;DHT22;18973;48.580;8.912;2022-07-18T05:26:19;16.40;78.50
32534;DHT22;18973;48.580;8.912;2022-07-18T05:28:45;16.50;76.60
32534;DHT22;18973;48.580;8.912;2022-07-18T05:31:11;16.60;77.30
32534;DHT22;18973;48.580;8.912;2022-07-18T05:33:37;16.60;77.70
32534;DHT22;18973;48.580;8.912;2022-07-18T05:36:04;16.60;77.60
32534;DHT22;18973;48.580;8.912;2022-07-18T05:38:29;16.80;75.90
32534;DHT22;18973;48.580;8.912;2022-07-18T05:40:58;16.70;76.40
32534;DHT22;18973;48.580;8.912;2022-07-18T05:43:24;16.80;75.80
32534;DHT22;18973;48.580;8.912;2022-07-18T05:45:49;16.90;75.60
32534;DHT22;18973;48.580;8.912;2022-07-18T05:48:15;17.00;74.30
32534;DHT22;18973;48.580;8.912;2022-07-18T05:50:41;17.00;75.30
32534;DHT22;18973;48.580;8.912;2022-07-18T05:53:06;17.10;74.40
32534;DHT22;18973;48.580;8.912;2022-07-18T05:55:32;17.10;74.80
32534;DHT22;18973;48.580;8.912;2022-07-18T05:57:58;17.20;74.20
32534;DHT22;18973;48.580;8.912;2022-07-18T06:00:24;17.30;73.60
32534;DHT22;18973;48.580;8.912;2022-07-18T06:02:50;17.40;73.70
32534;DHT22;18973;48.580;8.912;2022-07-18T06:05:16;17.30;74.30
32534;DHT22;18973;48.580;8.912;2022-07-18T06:07:42;17.50;73.60
32534;DHT22;18973;48.580;8.912;2022-07-18T06:10:08;17.40;74.00
32534;DHT22;18973;48.580;8.912;2022-07-18T06:12:34;17.60;73.90
32534;DHT22;18973;48.580;8.912;2022-07-18T06:15:00;17.70;73.80
32534;DHT22;18973;48.580;8.912;2022-07-18T06:17:26;17.90;73.60
32534;DHT22;18973;48.580;8.912;2022-07-18T06:19:55;18.00;73.50
32534;DHT22;18973;48.580;8.912;2022-07-18T06:22:22;18.20;72.90
32534;DHT22;18973;48.580;8.912;2022-07-18T06:24:48;18.30;74.00
32534;DHT22;18973;48.580;8.912;2022-07-18T06:27:13;18.40;73.30
32534;DHT22;18973;48.580;8.912;2022-07-18T06:29:39;18.50;73.20
32534;DHT22;18973;48.580;8.912;2022-07-18T06:32:05;18.60;72.70
32534;DHT22;18973;48.580;8.912;2022-07-18T06:34:31;18.80;73.90
32534;DHT22;18973;48.580;8.912;2022-07-18T06:36:57;19.00;71.70
32534;DHT22;18973;48.580;8.912;2022-07-18T06:39:23;19.10;71.50
32534;DHT22;18973;48.580;8.912;2022-07-18T06:41:48;19.30;71.30
32534;DHT22;18973;48.580;8.912;2022-07-18T06:44:15;19.50;69.30
32534;DHT22;18973;48.580;8.912;2022-07-18T06:46:41;19.60;69.50
32534;DHT22;18973;48.580;8.912;2022-07-18T06:49:07;19.70;68.60
32534;DHT22;18973;48.580;8.912;2022-07-18T06:51:33;19.90;70.00
32534;DHT22;18973;48.580;8.912;2022-07-18T06:53:59;20.00;69.40
32534;DHT22;18973;48.580;8.912;2022-07-18T06:56:25;20.20;65.80
32534;DHT22;18973;48.580;8.912;2022-07-18T06:58:51;20.40;66.10
32534;DHT22;18973;48.580;8.912;2022-07-18T07:01:19;20.50;65.50
32534;DHT22;18973;48.580;8.912;2022-07-18T07:03:45;20.60;62.00
32534;DHT22;18973;48.580;8.912;2022-07-18T07:06:11;20.60;62.40
32534;DHT22;18973;48.580;8.912;2022-07-18T07:08:37;20.90;63.90
32534;DHT22;18973;48.580;8.912;2022-07-18T07:11:03;21.00;61.70
32534;DHT22;18973;48.580;8.912;2022-07-18T07:13:29;21.30;62.80
32534;DHT22;18973;48.580;8.912;2022-07-18T07:15:55;21.50;60.90
32534;DHT22;18973;48.580;8.912;2022-07-18T07:18:20;21.70;61.10
32534;DHT22;18973;48.580;8.912;2022-07-18T07:20:47;21.90;62.40
32534;DHT22;18973;48.580;8.912;2022-07-18T07:23:12;22.20;59.90
32534;DHT22;18973;48.580;8.912;2022-07-18T07:25:39;22.40;59.10
32534;DHT22;18973;48.580;8.912;2022-07-18T07:28:06;22.70;56.80
32534;DHT22;18973;48.580;8.912;2022-07-18T07:30:33;22.80;57.70
32534;DHT22;18973;48.580;8.912;2022-07-18T07:32:59;23.10;57.60
32534;DHT22;18973;48.580;8.912;2022-07-18T07:35:26;23.30;57.80
32534;DHT22;18973;48.580;8.912;2022-07-18T07:37:56;23.60;56.80
32534;DHT22;18973;48.580;8.912;2022-07-18T07:40:24;23.90;55.00
32534;DHT22;18973;48.580;8.912;2022-07-18T07:42:51;23.90;55.70
32534;DHT22;18973;48.580;8.912;2022-07-18T07:45:18;24.20;55.60
32534;DHT22;18973;48.580;8.912;2022-07-18T07:47:44;24.40;55.30
32534;DHT22;18973;48.580;8.912;2022-07-18T07:50:11;24.70;54.50
32534;DHT22;18973;48.580;8.912;2022-07-18T07:52:38;24.90;55.00
32534;DHT22;18973;48.580;8.912;2022-07-18T07:55:05;25.00;54.60
32534;DHT22;18973;48.580;8.912;2022-07-18T07:57:32;25.10;54.70
32534;DHT22;18973;48.580;8.912;2022-07-18T07:59:57;25.40;53.30
32534;DHT22;18973;48.580;8.912;2022-07-18T08:02:23;25.70;52.70
32534;DHT22;18973;48.580;8.912;2022-07-18T08:04:49;25.80;53.00
32534;DHT22;18973;48.580;8.912;2022-07-18T08:07:16;26.10;52.60
32534;DHT22;18973;48.580;8.912;2022-07-18T08:09:41;26.40;51.30
32534;DHT22;18973;48.580;8.912;2022-07-18T08:12:07;26.60;48.80
32534;DHT22;18973;48.580;8.912;2022-07-18T08:14:33;26.80;50.50
32534;DHT22;18973;48.580;8.912;2022-07-18T08:17:00;27.00;48.20
32534;DHT22;18973;48.580;8.912;2022-07-18T08:19:26;27.00;48.30
32534;DHT22;18973;48.580;8.912;2022-07-18T08:21:52;27.30;49.10
32534;DHT22;18973;48.580;8.912;2022-07-18T08:24:17;27.50;47.10
32534;DHT22;18973;48.580;8.912;2022-07-18T08:26:43;27.70;48.00
32534;DHT22;18973;48.580;8.912;2022-07-18T08:29:09;27.90;47.90
32534;DHT22;18973;48.580;8.912;2022-07-18T08:31:34;27.90;47.00
32534;DHT22;18973;48.580;8.912;2022-07-18T08:34:02;27.90;47.50
32534;DHT22;18973;48.580;8.912;2022-07-18T08:36:27;28.30;49.20
32534;DHT22;18973;48.580;8.912;2022-07-18T08:38:53;28.70;48.50
32534;DHT22;18973;48.580;8.912;2022-07-18T08:41:22;29.00;47.00
32534;DHT22;18973;48.580;8.912;2022-07-18T08:43:48;29.30;47.10
32534;DHT22;18973;48.580;8.912;2022-07-18T08:46:18;29.40;44.70
32534;DHT22;18973;48.580;8.912;2022-07-18T08:48:46;29.50;45.50
32534;DHT22;18973;48.580;8.912;2022-07-18T08:51:12;29.60;45.10
32534;DHT22;18973;48.580;8.912;2022-07-18T08:53:38;29.40;45.80
32534;DHT22;18973;48.580;8.912;2022-07-18T08:56:05;29.40;43.80
32534;DHT22;18973;48.580;8.912;2022-07-18T08:58:31;29.50;44.90
32534;DHT22;18973;48.580;8.912;2022-07-18T09:00:57;29.80;44.70
32534;DHT22;18973;48.580;8.912;2022-07-18T09:03:24;30.20;46.40
32534;DHT22;18973;48.580;8.912;2022-07-18T09:06:10;30.50;45.30
32534;DHT22;18973;48.580;8.912;2022-07-18T09:09:00;30.90;46.50
32534;DHT22;18973;48.580;8.912;2022-07-18T09:11:26;31.30;45.20
32534;DHT22;18973;48.580;8.912;2022-07-18T09:13:52;31.60;42.20
32534;DHT22;18973;48.580;8.912;2022-07-18T09:16:18;31.60;42.80
32534;DHT22;18973;48.580;8.912;2022-07-18T09:18:48;31.80;42.30
32534;DHT22;18973;48.580;8.912;2022-07-18T09:21:16;31.90;40.00
32534;DHT22;18973;48.580;8.912;2022-07-18T09:23:45;31.80;40.30
32534;DHT22;18973;48.580;8.912;2022-07-18T09:26:42;32.00;38.50
32534;DHT22;18973;48.580;8.912;2022-07-18T09:29:14;32.10;39.80
32534;DHT22;18973;48.580;8.912;2022-07-18T09:31:51;32.20;37.20
32534;DHT22;18973;48.580;8.912;2022-07-18T09:34:37;32.00;37.20
32534;DHT22;18973;48.580;8.912;2022-07-18T09:37:04;32.20;37.90
32534;DHT22;18973;48.580;8.912;2022-07-18T09:39:30;32.30;39.00
32534;DHT22;18973;48.580;8.912;2022-07-18T09:42:15;32.20;38.40
32534;DHT22;18973;48.580;8.912;2022-07-18T09:44:41;32.60;38.20
32534;DHT22;18973;48.580;8.912;2022-07-18T09:47:07;32.50;38.10
32534;DHT22;18973;48.580;8.912;2022-07-18T09:49:33;32.40;37.60
32534;DHT22;18973;48.580;8.912;2022-07-18T09:52:07;32.40;37.90
32534;DHT22;18973;48.580;8.912;2022-07-18T09:54:42;32.40;38.70
32534;DHT22;18973;48.580;8.912;2022-07-18T09:57:09;32.60;37.60
32534;DHT22;18973;48.580;8.912;2022-07-18T09:59:36;32.60;38.10
32534;DHT22;18973;48.580;8.912;2022-07-18T10:02:03;32.60;36.90
32534;DHT22;18973;48.580;8.912;2022-07-18T10:04:30;32.60;37.60
32534;DHT22;18973;48.580;8.912;2022-07-18T10:06:56;32.50;36.90
32534;DHT22;18973;48.580;8.912;2022-07-18T10:09:22;32.70;38.60
32534;DHT22;18973;48.580;8.912;2022-07-18T10:11:48;32.80;36.20
32534;DHT22;18973;48.580;8.912;2022-07-18T10:14:14;32.70;36.20
32534;DHT22;18973;48.580;8.912;2022-07-18T10:16:41;32.50;36.00
32534;DHT22;18973;48.580;8.912;2022-07-18T10:19:06;32.30;35.50
32534;DHT22;18973;48.580;8.912;2022-07-18T10:21:33;32.20;37.10
32534;DHT22;18973;48.580;8.912;2022-07-18T10:24:00;32.20;37.20
32534;DHT22;18973;48.580;8.912;2022-07-18T10:26:27;32.30;37.50
32534;DHT22;18973;48.580;8.912;2022-07-18T10:29:14;32.60;38.50
32534;DHT22;18973;48.580;8.912;2022-07-18T10:31:59;32.80;37.90
32534;DHT22;18973;48.580;8.912;2022-07-18T10:34:33;33.10;37.40
32534;DHT22;18973;48.580;8.912;2022-07-18T10:39:42;33.70;37.40
32534;DHT22;18973;48.580;8.912;2022-07-18T10:44:35;33.70;36.00
32534;DHT22;18973;48.580;8.912;2022-07-18T10:47:05;34.00;37.10
32534;DHT22;18973;48.580;8.912;2022-07-18T11:00:14;33.90;35.30
32534;DHT22;18973;48.580;8.912;2022-07-18T11:02:48;33.70;36.00
32534;DHT22;18973;48.580;8.912;2022-07-18T11:16:18;33.30;36.10
32534;DHT22;18973;48.580;8.912;2022-07-18T11:21:27;33.70;36.80
32534;DHT22;18973;48.580;8.912;2022-07-18T11:24:03;33.80;36.30
32534;DHT22;18973;48.580;8.912;2022-07-18T11:26:29;34.00;35.90
32534;DHT22;18973;48.580;8.912;2022-07-18T11:29:04;34.20;36.70
32534;DHT22;18973;48.580;8.912;2022-07-18T11:31:30;34.40;36.10
32534;DHT22;18973;48.580;8.912;2022-07-18T11:33:59;34.40;34.80
32534;DHT22;18973;48.580;8.912;2022-07-18T11:36:29;34.20;34.70
32534;DHT22;18973;48.580;8.912;2022-07-18T11:39:01;34.10;34.60
32534;DHT22;18973;48.580;8.912;2022-07-18T11:41:27;34.10;35.90
32534;DHT22;18973;48.580;8.912;2022-07-18T11:43:54;34.20;37.00
32534;DHT22;18973;48.580;8.912;2022-07-18T11:46:25;34.50;35.30
32534;DHT22;18973;48.580;8.912;2022-07-18T11:49:02;34.60;34.90
32534;DHT22;18973;48.580;8.912;2022-07-18T11:51:42;34.40;34.90
32534;DHT22;18973;48.580;8.912;2022-07-18T11:54:09;33.90;34.90
32534;DHT22;18973;48.580;8.912;2022-07-18T11:56:54;33.70;35.20
32534;DHT22;18973;48.580;8.912;2022-07-18T11:59:21;33.50;34.60
32534;DHT22;18973;48.580;8.912;2022-07-18T12:01:48;33.70;35.10
32534;DHT22;18973;48.580;8.912;2022-07-18T12:04:19;33.70;36.00
32534;DHT22;18973;48.580;8.912;2022-07-18T12:06:46;33.60;35.50
32534;DHT22;18973;48.580;8.912;2022-07-18T12:09:31;33.60;37.00
32534;DHT22;18973;48.580;8.912;2022-07-18T12:12:10;33.70;36.70
32534;DHT22;18973;48.580;8.912;2022-07-18T12:14:36;34.20;36.10
32534;DHT22;18973;48.580;8.912;2022-07-18T12:17:04;34.20;35.40
32534;DHT22;18973;48.580;8.912;2022-07-18T12:19:36;34.40;35.60
32534;DHT22;18973;48.580;8.912;2022-07-18T12:27:16;34.20;36.10
32534;DHT22;18973;48.580;8.912;2022-07-18T12:30:11;34.30;35.60
32534;DHT22;18973;48.580;8.912;2022-07-18T12:32:48;34.40;36.60
32534;DHT22;18973;48.580;8.912;2022-07-18T12:35:32;34.20;34.60
32534;DHT22;18973;48.580;8.912;2022-07-18T12:40:50;34.50;35.10
32534;DHT22;18973;48.580;8.912;2022-07-18T12:43:31;34.50;34.00
32534;DHT22;18973;48.580;8.912;2022-07-18T12:45:59;34.60;36.40
32534;DHT22;18973;48.580;8.912;2022-07-18T12:48:27;34.70;34.70
32534;DHT22;18973;48.580;8.912;2022-07-18T12:51:01;34.60;34.10
32534;DHT22;18973;48.580;8.912;2022-07-18T12:53:29;34.30;35.00
32534;DHT22;18973;48.580;8.912;2022-07-18T12:55:55;34.20;37.50
32534;DHT22;18973;48.580;8.912;2022-07-18T12:58:21;34.50;35.50
32534;DHT22;18973;48.580;8.912;2022-07-18T13:00:47;34.80;36.00
32534;DHT22;18973;48.580;8.912;2022-07-18T13:03:13;34.90;35.80
32534;DHT22;18973;48.580;8.912;2022-07-18T13:05:39;35.10;34.70
32534;DHT22;18973;48.580;8.912;2022-07-18T13:08:07;35.00;34.80
32534;DHT22;18973;48.580;8.912;2022-07-18T13:10:34;35.20;35.70
32534;DHT22;18973;48.580;8.912;2022-07-18T13:13:05;35.30;35.10
32534;DHT22;18973;48.580;8.912;2022-07-18T13:15:31;35.20;35.30
32534;DHT22;18973;48.580;8.912;2022-07-18T13:17:57;35.10;35.00
32534;DHT22;18973;48.580;8.912;2022-07-18T13:20:24;35.10;35.00
32534;DHT22;18973;48.580;8.912;2022-07-18T13:22:50;35.00;35.20
32534;DHT22;18973;48.580;8.912;2022-07-18T13:25:17;35.10;35.90
32534;DHT22;18973;48.580;8.912;2022-07-18T13:27:43;35.40;35.70
32534;DHT22;18973;48.580;8.912;2022-07-18T13:30:09;35.40;35.50
32534;DHT22;18973;48.580;8.912;2022-07-18T13:32:36;35.50;36.40
32534;DHT22;18973;48.580;8.912;2022-07-18T13:35:02;35.60;35.40
32534;DHT22;18973;48.580;8.912;2022-07-18T13:37:29;35.60;34.30
32534;DHT22;18973;48.580;8.912;2022-07-18T13:39:55;35.40;34.90
32534;DHT22;18973;48.580;8.912;2022-07-18T13:42:20;35.40;34.70
32534;DHT22;18973;48.580;8.912;2022-07-18T13:44:46;35.30;34.60
32534;DHT22;18973;48.580;8.912;2022-07-18T13:47:16;35.10;35.10
32534;DHT22;18973;48.580;8.912;2022-07-18T13:49:42;35.30;36.50
32534;DHT22;18973;48.580;8.912;2022-07-18T13:52:08;35.30;35.30
32534;DHT22;18973;48.580;8.912;2022-07-18T13:54:34;35.20;34.90
32534;DHT22;18973;48.580;8.912;2022-07-18T13:56:59;35.00;34.80
32534;DHT22;18973;48.580;8.912;2022-07-18T13:59:25;34.90;35.00
32534;DHT22;18973;48.580;8.912;2022-07-18T14:01:51;34.90;36.00
32534;DHT22;18973;48.580;8.912;2022-07-18T14:04:18;35.00;34.70
32534;DHT22;18973;48.580;8.912;2022-07-18T14:06:45;34.80;34.90
32534;DHT22;18973;48.580;8.912;2022-07-18T14:09:10;34.70;35.50
32534;DHT22;18973;48.580;8.912;2022-07-18T14:11:36;34.70;35.50
32534;DHT22;18973;48.580;8.912;2022-07-18T14:14:03;34.80;36.00
32534;DHT22;18973;48.580;8.912;2022-07-18T14:16:30;34.80;35.00
32534;DHT22;18973;48.580;8.912;2022-07-18T14:18:56;34.60;34.40
32534;DHT22;18973;48.580;8.912;2022-07-18T14:21:22;34.60;35.10
32534;DHT22;18973;48.580;8.912;2022-07-18T14:23:48;34.50;35.10
32534;DHT22;18973;48.580;8.912;2022-07-18T14:26:14;34.60;36.20
32534;DHT22;18973;48.580;8.912;2022-07-18T14:28:40;34.80;35.90
32534;DHT22;18973;48.580;8.912;2022-07-18T14:31:05;34.90;36.70
32534;DHT22;18973;48.580;8.912;2022-07-18T14:33:31;35.00;34.90
32534;DHT22;18973;48.580;8.912;2022-07-18T14:35:57;34.90;34.80
32534;DHT22;18973;48.580;8.912;2022-07-18T14:38:23;34.80;34.60
32534;DHT22;18973;48.580;8.912;2022-07-18T14:40:49;34.70;35.20
32534;DHT22;18973;48.580;8.912;2022-07-18T14:43:14;34.70;35.00
32534;DHT22;18973;48.580;8.912;2022-07-18T14:45:41;34.80;35.30
32534;DHT22;18973;48.580;8.912;2022-07-18T14:48:07;34.70;35.70
32534;DHT22;18973;48.580;8.912;2022-07-18T14:50:33;34.80;34.90
32534;DHT22;18973;48.580;8.912;2022-07-18T14:52:59;34.90;35.60
32534;DHT22;18973;48.580;8.912;2022-07-18T14:55:25;35.00;36.20
32534;DHT22;18973;48.580;8.912;2022-07-18T14:57:50;35.10;36.40
32534;DHT22;18973;48.580;8.912;2022-07-18T15:00:16;35.20;35.00
32534;DHT22;18973;48.580;8.912;2022-07-18T15:02:42;34.90;34.80
32534;DHT22;18973;48.580;8.912;2022-07-18T15:05:08;35.00;36.50
32534;DHT22;18973;48.580;8.912;2022-07-18T15:07:34;35.10;37.10
32534;DHT22;18973;48.580;8.912;2022-07-18T15:10:00;35.20;35.30
32534;DHT22;18973;48.580;8.912;2022-07-18T15:12:26;35.00;34.70
32534;DHT22;18973;48.580;8.912;2022-07-18T15:14:53;35.00;35.60
32534;DHT22;18973;48.580;8.912;2022-07-18T15:17:22;35.10;35.60
32534;DHT22;18973;48.580;8.912;2022-07-18T15:19:48;34.90;34.60
32534;DHT22;18973;48.580;8.912;2022-07-18T15:22:13;34.80;34.90
32534;DHT22;18973;48.580;8.912;2022-07-18T15:24:39;34.70;35.00
32534;DHT22;18973;48.580;8.912;2022-07-18T15:27:05;34.70;34.50
32534;DHT22;18973;48.580;8.912;2022-07-18T15:29:31;34.70;34.80
32534;DHT22;18973;48.580;8.912;2022-07-18T15:31:57;34.50;34.70
32534;DHT22;18973;48.580;8.912;2022-07-18T15:34:23;34.10;34.80
32534;DHT22;18973;48.580;8.912;2022-07-18T15:36:49;33.90;34.90
32534;DHT22;18973;48.580;8.912;2022-07-18T15:39:15;33.90;34.90
32534;DHT22;18973;48.580;8.912;2022-07-18T15:41:41;33.90;35.10
32534;DHT22;18973;48.580;8.912;2022-07-18T15:44:10;34.00;35.10
32534;DHT22;18973;48.580;8.912;2022-07-18T15:46:37;34.10;35.20
32534;DHT22;18973;48.580;8.912;2022-07-18T15:49:03;33.70;34.90
32534;DHT22;18973;48.580;8.912;2022-07-18T15:51:29;33.70;35.20
32534;DHT22;18973;48.580;8.912;2022-07-18T15:53:55;33.70;35.70
32534;DHT22;18973;48.580;8.912;2022-07-18T15:56:21;33.80;35.30
32534;DHT22;18973;48.580;8.912;2022-07-18T15:58:46;33.70;35.20
32534;DHT22;18973;48.580;8.912;2022-07-18T16:01:12;33.50;35.60
32534;DHT22;18973;48.580;8.912;2022-07-18T16:03:38;33.40;35.60
32534;DHT22;18973;48.580;8.912;2022-07-18T16:06:04;33.50;36.00
32534;DHT22;18973;48.580;8.912;2022-07-18T16:08:30;33.30;35.50